Terminal Aerodrome Forecast
Issued by NWS Riverton, WY

Home | Current Version | Previous Version | Text Only | Print | Product List | Glossary On
Versions: 1 2 3 4 5 6 7 8 9 10 11 12 13
000
FTUS45 KRIW 171700
TAFRIW
TAF
KRIW 171720Z 1718/1818 30012G20KT P6SM VCTS SCT050CB BKN120
      TEMPO 1718/1721 VRB15G30KT 5SM -TSRA SCT030 BKN050CB
     FM172100 30012KT P6SM VCSH SCT050 BKN120
     FM180100 28008G16KT P6SM VCSH BKN120
     FM180300 30009KT P6SM SCT120=

USA.gov is the U.S. government's official web portal to all federal, state and local government web resources and services.